sensor_id;sensor_type;location;lat;lon;timestamp;P1;durP1;ratioP1;P2;durP2;ratioP2
15645;SDS011;7922;43.622;1.476;2024-02-26T00:01:01;5.83;;;5.27;;
15645;SDS011;7922;43.622;1.476;2024-02-26T00:03:26;5.67;;;4.50;;
15645;SDS011;7922;43.622;1.476;2024-02-26T00:05:51;7.63;;;4.60;;
15645;SDS011;7922;43.622;1.476;2024-02-26T00:08:17;6.83;;;5.43;;
15645;SDS011;7922;43.622;1.476;2024-02-26T00:10:42;7.97;;;5.50;;
15645;SDS011;7922;43.622;1.476;2024-02-26T00:13:07;6.07;;;5.10;;
15645;SDS011;7922;43.622;1.476;2024-02-26T00:15:32;7.37;;;4.40;;
15645;SDS011;7922;43.622;1.476;2024-02-26T00:17:58;8.10;;;5.90;;
15645;SDS011;7922;43.622;1.476;2024-02-26T00:20:23;6.10;;;4.73;;
15645;SDS011;7922;43.622;1.476;2024-02-26T00:22:48;6.03;;;4.67;;
15645;SDS011;7922;43.622;1.476;2024-02-26T00:28:17;5.30;;;4.10;;
15645;SDS011;7922;43.622;1.476;2024-02-26T00:30:42;6.20;;;4.37;;
15645;SDS011;7922;43.622;1.476;2024-02-26T00:33:07;6.83;;;4.60;;
15645;SDS011;7922;43.622;1.476;2024-02-26T00:35:33;6.27;;;5.00;;
15645;SDS011;7922;43.622;1.476;2024-02-26T00:37:58;5.67;;;4.10;;
15645;SDS011;7922;43.622;1.476;2024-02-26T00:40:23;4.80;;;4.23;;
15645;SDS011;7922;43.622;1.476;2024-02-26T00:42:48;6.20;;;4.47;;
15645;SDS011;7922;43.622;1.476;2024-02-26T00:45:14;8.20;;;4.17;;
15645;SDS011;7922;43.622;1.476;2024-02-26T00:47:39;4.23;;;3.73;;
15645;SDS011;7922;43.622;1.476;2024-02-26T00:50:05;7.87;;;4.23;;
15645;SDS011;7922;43.622;1.476;2024-02-26T00:52:31;9.70;;;4.67;;
15645;SDS011;7922;43.622;1.476;2024-02-26T00:54:56;7.23;;;4.17;;
15645;SDS011;7922;43.622;1.476;2024-02-26T00:57:21;6.70;;;4.20;;
15645;SDS011;7922;43.622;1.476;2024-02-26T00:59:46;5.47;;;3.70;;
15645;SDS011;7922;43.622;1.476;2024-02-26T01:02:12;7.67;;;4.53;;
15645;SDS011;7922;43.622;1.476;2024-02-26T01:04:37;6.03;;;4.13;;
15645;SDS011;7922;43.622;1.476;2024-02-26T01:07:02;5.77;;;4.20;;
15645;SDS011;7922;43.622;1.476;2024-02-26T01:09:28;5.27;;;3.90;;
15645;SDS011;7922;43.622;1.476;2024-02-26T01:11:53;7.83;;;3.47;;
15645;SDS011;7922;43.622;1.476;2024-02-26T01:14:18;5.27;;;3.73;;
15645;SDS011;7922;43.622;1.476;2024-02-26T01:16:43;6.47;;;3.30;;
15645;SDS011;7922;43.622;1.476;2024-02-26T01:19:09;5.47;;;2.93;;
15645;SDS011;7922;43.622;1.476;2024-02-26T01:21:34;8.07;;;3.60;;
15645;SDS011;7922;43.622;1.476;2024-02-26T01:23:59;6.77;;;3.60;;
15645;SDS011;7922;43.622;1.476;2024-02-26T01:26:24;8.17;;;3.20;;
15645;SDS011;7922;43.622;1.476;2024-02-26T01:28:50;5.50;;;3.37;;
15645;SDS011;7922;43.622;1.476;2024-02-26T01:31:15;5.03;;;3.73;;
15645;SDS011;7922;43.622;1.476;2024-02-26T01:33:40;8.43;;;3.80;;
15645;SDS011;7922;43.622;1.476;2024-02-26T01:36:06;4.73;;;2.93;;
15645;SDS011;7922;43.622;1.476;2024-02-26T01:38:31;5.70;;;3.27;;
15645;SDS011;7922;43.622;1.476;2024-02-26T01:40:56;8.07;;;3.47;;
15645;SDS011;7922;43.622;1.476;2024-02-26T01:43:22;5.57;;;3.20;;
15645;SDS011;7922;43.622;1.476;2024-02-26T01:45:47;9.13;;;3.10;;
15645;SDS011;7922;43.622;1.476;2024-02-26T01:48:12;9.57;;;3.70;;
15645;SDS011;7922;43.622;1.476;2024-02-26T01:50:38;10.33;;;3.87;;
15645;SDS011;7922;43.622;1.476;2024-02-26T01:53:05;7.77;;;3.90;;
15645;SDS011;7922;43.622;1.476;2024-02-26T01:55:32;6.20;;;3.93;;
15645;SDS011;7922;43.622;1.476;2024-02-26T01:57:58;8.93;;;3.80;;
15645;SDS011;7922;43.622;1.476;2024-02-26T02:00:23;6.83;;;3.57;;
15645;SDS011;7922;43.622;1.476;2024-02-26T02:02:50;4.83;;;3.30;;
15645;SDS011;7922;43.622;1.476;2024-02-26T02:05:15;8.33;;;3.50;;
15645;SDS011;7922;43.622;1.476;2024-02-26T02:07:41;12.13;;;3.40;;
15645;SDS011;7922;43.622;1.476;2024-02-26T02:10:07;10.17;;;4.23;;
15645;SDS011;7922;43.622;1.476;2024-02-26T02:12:33;6.87;;;3.70;;
15645;SDS011;7922;43.622;1.476;2024-02-26T02:14:58;8.03;;;3.87;;
15645;SDS011;7922;43.622;1.476;2024-02-26T02:17:24;5.37;;;3.63;;
15645;SDS011;7922;43.622;1.476;2024-02-26T02:19:49;5.13;;;3.43;;
15645;SDS011;7922;43.622;1.476;2024-02-26T02:22:14;6.40;;;3.57;;
15645;SDS011;7922;43.622;1.476;2024-02-26T02:24:39;8.37;;;3.57;;
15645;SDS011;7922;43.622;1.476;2024-02-26T02:27:05;7.27;;;3.07;;
15645;SDS011;7922;43.622;1.476;2024-02-26T02:29:30;10.23;;;3.63;;
15645;SDS011;7922;43.622;1.476;2024-02-26T02:31:55;6.17;;;3.47;;
15645;SDS011;7922;43.622;1.476;2024-02-26T02:34:22;9.33;;;3.73;;
15645;SDS011;7922;43.622;1.476;2024-02-26T02:36:56;5.67;;;3.50;;
15645;SDS011;7922;43.622;1.476;2024-02-26T02:39:21;8.77;;;3.60;;
15645;SDS011;7922;43.622;1.476;2024-02-26T02:41:46;7.40;;;4.03;;
15645;SDS011;7922;43.622;1.476;2024-02-26T02:44:12;6.50;;;3.30;;
15645;SDS011;7922;43.622;1.476;2024-02-26T02:46:38;6.53;;;3.70;;
15645;SDS011;7922;43.622;1.476;2024-02-26T02:49:03;8.23;;;3.57;;
15645;SDS011;7922;43.622;1.476;2024-02-26T02:51:29;7.33;;;4.27;;
15645;SDS011;7922;43.622;1.476;2024-02-26T02:53:54;7.30;;;4.43;;
15645;SDS011;7922;43.622;1.476;2024-02-26T02:56:19;8.80;;;3.97;;
15645;SDS011;7922;43.622;1.476;2024-02-26T02:58:45;7.43;;;3.73;;
15645;SDS011;7922;43.622;1.476;2024-02-26T03:01:12;9.00;;;3.97;;
15645;SDS011;7922;43.622;1.476;2024-02-26T03:03:38;10.00;;;3.60;;
15645;SDS011;7922;43.622;1.476;2024-02-26T03:06:03;5.27;;;3.50;;
15645;SDS011;7922;43.622;1.476;2024-02-26T03:08:29;7.00;;;3.40;;
15645;SDS011;7922;43.622;1.476;2024-02-26T03:10:54;10.20;;;3.63;;
15645;SDS011;7922;43.622;1.476;2024-02-26T03:13:19;10.97;;;3.30;;
15645;SDS011;7922;43.622;1.476;2024-02-26T03:15:45;8.23;;;2.47;;
15645;SDS011;7922;43.622;1.476;2024-02-26T03:18:10;6.93;;;2.40;;
15645;SDS011;7922;43.622;1.476;2024-02-26T03:20:35;10.77;;;2.27;;
15645;SDS011;7922;43.622;1.476;2024-02-26T03:23:01;9.27;;;2.40;;
15645;SDS011;7922;43.622;1.476;2024-02-26T03:25:26;8.37;;;3.10;;
15645;SDS011;7922;43.622;1.476;2024-02-26T03:27:51;8.17;;;2.33;;
15645;SDS011;7922;43.622;1.476;2024-02-26T03:30:17;7.43;;;2.23;;
15645;SDS011;7922;43.622;1.476;2024-02-26T03:32:42;8.10;;;2.10;;
15645;SDS011;7922;43.622;1.476;2024-02-26T03:35:07;10.73;;;2.17;;
15645;SDS011;7922;43.622;1.476;2024-02-26T03:37:33;10.80;;;2.30;;
15645;SDS011;7922;43.622;1.476;2024-02-26T03:39:58;6.57;;;1.67;;
15645;SDS011;7922;43.622;1.476;2024-02-26T03:42:24;5.40;;;1.50;;
15645;SDS011;7922;43.622;1.476;2024-02-26T03:44:49;8.20;;;1.60;;
15645;SDS011;7922;43.622;1.476;2024-02-26T03:47:14;12.80;;;2.40;;
15645;SDS011;7922;43.622;1.476;2024-02-26T03:49:40;7.07;;;1.60;;
15645;SDS011;7922;43.622;1.476;2024-02-26T03:52:06;8.00;;;2.03;;
15645;SDS011;7922;43.622;1.476;2024-02-26T03:54:31;7.07;;;1.93;;
15645;SDS011;7922;43.622;1.476;2024-02-26T03:56:56;8.60;;;1.73;;
15645;SDS011;7922;43.622;1.476;2024-02-26T03:59:22;8.00;;;2.33;;
15645;SDS011;7922;43.622;1.476;2024-02-26T04:01:47;6.83;;;2.03;;
15645;SDS011;7922;43.622;1.476;2024-02-26T04:04:12;6.67;;;1.80;;
15645;SDS011;7922;43.622;1.476;2024-02-26T04:06:38;6.30;;;2.07;;
15645;SDS011;7922;43.622;1.476;2024-02-26T04:09:03;7.40;;;2.00;;
15645;SDS011;7922;43.622;1.476;2024-02-26T04:11:28;8.07;;;2.37;;
15645;SDS011;7922;43.622;1.476;2024-02-26T04:13:54;6.57;;;1.73;;
15645;SDS011;7922;43.622;1.476;2024-02-26T04:16:19;5.83;;;1.63;;
15645;SDS011;7922;43.622;1.476;2024-02-26T04:18:44;9.30;;;2.17;;
15645;SDS011;7922;43.622;1.476;2024-02-26T04:21:10;5.57;;;1.47;;
15645;SDS011;7922;43.622;1.476;2024-02-26T04:23:35;10.30;;;1.87;;
15645;SDS011;7922;43.622;1.476;2024-02-26T04:26:00;7.73;;;1.67;;
15645;SDS011;7922;43.622;1.476;2024-02-26T04:28:26;7.97;;;1.53;;
15645;SDS011;7922;43.622;1.476;2024-02-26T04:30:51;5.03;;;1.43;;
15645;SDS011;7922;43.622;1.476;2024-02-26T04:33:16;5.83;;;1.30;;
15645;SDS011;7922;43.622;1.476;2024-02-26T04:35:42;5.10;;;1.77;;
15645;SDS011;7922;43.622;1.476;2024-02-26T04:38:07;6.40;;;1.73;;
15645;SDS011;7922;43.622;1.476;2024-02-26T04:40:32;5.90;;;1.40;;
15645;SDS011;7922;43.622;1.476;2024-02-26T04:42:58;5.70;;;1.67;;
15645;SDS011;7922;43.622;1.476;2024-02-26T04:45:23;6.50;;;1.60;;
15645;SDS011;7922;43.622;1.476;2024-02-26T04:47:48;4.30;;;1.50;;
15645;SDS011;7922;43.622;1.476;2024-02-26T04:50:13;5.27;;;1.53;;
15645;SDS011;7922;43.622;1.476;2024-02-26T04:52:39;4.30;;;1.10;;
15645;SDS011;7922;43.622;1.476;2024-02-26T04:55:04;3.50;;;1.20;;
15645;SDS011;7922;43.622;1.476;2024-02-26T04:57:30;5.37;;;1.40;;
15645;SDS011;7922;43.622;1.476;2024-02-26T04:59:55;6.73;;;1.70;;
15645;SDS011;7922;43.622;1.476;2024-02-26T05:02:20;4.37;;;1.33;;
15645;SDS011;7922;43.622;1.476;2024-02-26T05:04:45;4.53;;;1.20;;
15645;SDS011;7922;43.622;1.476;2024-02-26T05:07:11;3.10;;;1.10;;
15645;SDS011;7922;43.622;1.476;2024-02-26T05:09:36;9.80;;;1.63;;
15645;SDS011;7922;43.622;1.476;2024-02-26T05:12:01;2.80;;;1.00;;
15645;SDS011;7922;43.622;1.476;2024-02-26T05:14:27;4.83;;;1.00;;
15645;SDS011;7922;43.622;1.476;2024-02-26T05:16:52;3.93;;;1.17;;
15645;SDS011;7922;43.622;1.476;2024-02-26T05:19:17;2.23;;;1.10;;
15645;SDS011;7922;43.622;1.476;2024-02-26T05:21:43;2.47;;;0.97;;
15645;SDS011;7922;43.622;1.476;2024-02-26T05:24:08;2.83;;;0.93;;
15645;SDS011;7922;43.622;1.476;2024-02-26T05:26:33;2.33;;;1.00;;
15645;SDS011;7922;43.622;1.476;2024-02-26T05:28:58;2.63;;;1.00;;
15645;SDS011;7922;43.622;1.476;2024-02-26T05:31:24;4.53;;;1.70;;
15645;SDS011;7922;43.622;1.476;2024-02-26T05:33:49;2.40;;;1.10;;
15645;SDS011;7922;43.622;1.476;2024-02-26T05:36:18;3.33;;;1.00;;
15645;SDS011;7922;43.622;1.476;2024-02-26T05:38:44;6.27;;;1.20;;
15645;SDS011;7922;43.622;1.476;2024-02-26T05:41:09;3.93;;;1.10;;
15645;SDS011;7922;43.622;1.476;2024-02-26T05:43:35;2.53;;;1.30;;
15645;SDS011;7922;43.622;1.476;2024-02-26T05:46:00;5.53;;;1.27;;
15645;SDS011;7922;43.622;1.476;2024-02-26T05:48:25;6.53;;;1.57;;
15645;SDS011;7922;43.622;1.476;2024-02-26T05:50:51;6.87;;;1.77;;
15645;SDS011;7922;43.622;1.476;2024-02-26T05:53:16;2.30;;;1.07;;
15645;SDS011;7922;43.622;1.476;2024-02-26T05:55:41;3.03;;;1.10;;
15645;SDS011;7922;43.622;1.476;2024-02-26T05:58:06;4.23;;;1.33;;
15645;SDS011;7922;43.622;1.476;2024-02-26T06:00:32;3.70;;;1.10;;
15645;SDS011;7922;43.622;1.476;2024-02-26T06:02:57;2.83;;;1.07;;
15645;SDS011;7922;43.622;1.476;2024-02-26T06:05:22;2.20;;;1.23;;
15645;SDS011;7922;43.622;1.476;2024-02-26T06:07:48;3.20;;;1.23;;
15645;SDS011;7922;43.622;1.476;2024-02-26T06:10:13;3.43;;;1.10;;
15645;SDS011;7922;43.622;1.476;2024-02-26T06:12:38;2.37;;;1.10;;
15645;SDS011;7922;43.622;1.476;2024-02-26T06:15:04;3.07;;;1.40;;
15645;SDS011;7922;43.622;1.476;2024-02-26T06:17:29;3.90;;;1.20;;
15645;SDS011;7922;43.622;1.476;2024-02-26T06:19:55;4.43;;;1.30;;
15645;SDS011;7922;43.622;1.476;2024-02-26T06:22:20;3.00;;;1.03;;
15645;SDS011;7922;43.622;1.476;2024-02-26T06:24:45;5.20;;;1.33;;
15645;SDS011;7922;43.622;1.476;2024-02-26T06:27:10;3.03;;;1.00;;
15645;SDS011;7922;43.622;1.476;2024-02-26T06:29:36;3.40;;;1.10;;
15645;SDS011;7922;43.622;1.476;2024-02-26T06:32:01;3.83;;;1.30;;
15645;SDS011;7922;43.622;1.476;2024-02-26T06:34:26;6.40;;;1.57;;
15645;SDS011;7922;43.622;1.476;2024-02-26T06:36:52;3.30;;;1.07;;
15645;SDS011;7922;43.622;1.476;2024-02-26T06:39:17;4.57;;;1.40;;
15645;SDS011;7922;43.622;1.476;2024-02-26T06:41:42;5.37;;;1.17;;
15645;SDS011;7922;43.622;1.476;2024-02-26T06:44:07;4.47;;;1.30;;
15645;SDS011;7922;43.622;1.476;2024-02-26T06:46:33;3.77;;;1.10;;
15645;SDS011;7922;43.622;1.476;2024-02-26T06:48:58;2.73;;;1.17;;
15645;SDS011;7922;43.622;1.476;2024-02-26T06:51:23;4.30;;;1.03;;
15645;SDS011;7922;43.622;1.476;2024-02-26T06:53:49;3.47;;;1.00;;
15645;SDS011;7922;43.622;1.476;2024-02-26T06:56:14;2.57;;;1.00;;
15645;SDS011;7922;43.622;1.476;2024-02-26T06:58:39;5.43;;;1.30;;
15645;SDS011;7922;43.622;1.476;2024-02-26T07:01:05;7.67;;;1.80;;
15645;SDS011;7922;43.622;1.476;2024-02-26T07:03:30;3.17;;;1.13;;
15645;SDS011;7922;43.622;1.476;2024-02-26T07:05:55;4.07;;;1.10;;
15645;SDS011;7922;43.622;1.476;2024-02-26T07:08:21;5.43;;;1.20;;
15645;SDS011;7922;43.622;1.476;2024-02-26T07:10:46;3.50;;;0.90;;
15645;SDS011;7922;43.622;1.476;2024-02-26T07:13:11;3.77;;;1.00;;
15645;SDS011;7922;43.622;1.476;2024-02-26T07:15:37;2.83;;;1.03;;
15645;SDS011;7922;43.622;1.476;2024-02-26T07:18:02;2.60;;;1.00;;
15645;SDS011;7922;43.622;1.476;2024-02-26T07:20:27;3.57;;;1.10;;
15645;SDS011;7922;43.622;1.476;2024-02-26T07:22:53;3.07;;;1.13;;
15645;SDS011;7922;43.622;1.476;2024-02-26T07:25:18;3.60;;;0.90;;
15645;SDS011;7922;43.622;1.476;2024-02-26T07:27:43;4.23;;;1.63;;
15645;SDS011;7922;43.622;1.476;2024-02-26T07:30:09;2.70;;;1.13;;
15645;SDS011;7922;43.622;1.476;2024-02-26T07:32:35;3.70;;;1.20;;
15645;SDS011;7922;43.622;1.476;2024-02-26T07:35:00;6.13;;;1.20;;
15645;SDS011;7922;43.622;1.476;2024-02-26T07:37:25;3.60;;;1.20;;
15645;SDS011;7922;43.622;1.476;2024-02-26T07:39:50;3.10;;;1.10;;
15645;SDS011;7922;43.622;1.476;2024-02-26T07:42:16;2.90;;;0.90;;
15645;SDS011;7922;43.622;1.476;2024-02-26T07:44:41;5.17;;;1.30;;
15645;SDS011;7922;43.622;1.476;2024-02-26T07:47:06;4.53;;;1.23;;
15645;SDS011;7922;43.622;1.476;2024-02-26T07:49:32;4.07;;;1.10;;
15645;SDS011;7922;43.622;1.476;2024-02-26T07:51:57;3.47;;;1.00;;
15645;SDS011;7922;43.622;1.476;2024-02-26T07:54:22;4.47;;;1.20;;
15645;SDS011;7922;43.622;1.476;2024-02-26T07:56:47;3.53;;;1.03;;
15645;SDS011;7922;43.622;1.476;2024-02-26T07:59:13;3.63;;;1.13;;
15645;SDS011;7922;43.622;1.476;2024-02-26T08:01:38;3.33;;;1.00;;
15645;SDS011;7922;43.622;1.476;2024-02-26T08:04:04;1.87;;;1.10;;
15645;SDS011;7922;43.622;1.476;2024-02-26T08:06:29;3.00;;;1.27;;
15645;SDS011;7922;43.622;1.476;2024-02-26T08:08:54;2.40;;;1.00;;
15645;SDS011;7922;43.622;1.476;2024-02-26T08:11:20;3.50;;;1.37;;
15645;SDS011;7922;43.622;1.476;2024-02-26T08:13:45;4.17;;;1.37;;
15645;SDS011;7922;43.622;1.476;2024-02-26T08:16:10;3.47;;;1.30;;
15645;SDS011;7922;43.622;1.476;2024-02-26T08:18:35;4.93;;;1.00;;
15645;SDS011;7922;43.622;1.476;2024-02-26T08:21:01;3.57;;;1.10;;
15645;SDS011;7922;43.622;1.476;2024-02-26T08:23:26;4.00;;;1.37;;
15645;SDS011;7922;43.622;1.476;2024-02-26T08:25:51;3.60;;;1.47;;
15645;SDS011;7922;43.622;1.476;2024-02-26T08:28:17;3.63;;;1.30;;
15645;SDS011;7922;43.622;1.476;2024-02-26T08:30:45;4.93;;;1.50;;
15645;SDS011;7922;43.622;1.476;2024-02-26T08:33:10;5.87;;;1.83;;
15645;SDS011;7922;43.622;1.476;2024-02-26T08:35:36;2.87;;;1.03;;
15645;SDS011;7922;43.622;1.476;2024-02-26T08:38:01;4.73;;;1.70;;
15645;SDS011;7922;43.622;1.476;2024-02-26T08:40:26;4.10;;;1.37;;
15645;SDS011;7922;43.622;1.476;2024-02-26T08:42:52;5.87;;;1.23;;
15645;SDS011;7922;43.622;1.476;2024-02-26T08:45:17;3.33;;;1.37;;
15645;SDS011;7922;43.622;1.476;2024-02-26T08:47:44;3.20;;;1.10;;
15645;SDS011;7922;43.622;1.476;2024-02-26T08:50:10;8.00;;;1.77;;
15645;SDS011;7922;43.622;1.476;2024-02-26T08:52:35;5.53;;;1.30;;
15645;SDS011;7922;43.622;1.476;2024-02-26T08:55:00;6.57;;;1.40;;
15645;SDS011;7922;43.622;1.476;2024-02-26T08:57:25;2.40;;;1.30;;
15645;SDS011;7922;43.622;1.476;2024-02-26T08:59:51;4.90;;;1.60;;
15645;SDS011;7922;43.622;1.476;2024-02-26T09:02:16;4.07;;;1.77;;
15645;SDS011;7922;43.622;1.476;2024-02-26T09:04:41;7.50;;;1.90;;
15645;SDS011;7922;43.622;1.476;2024-02-26T09:07:06;5.93;;;1.33;;
15645;SDS011;7922;43.622;1.476;2024-02-26T09:09:32;7.43;;;1.40;;
15645;SDS011;7922;43.622;1.476;2024-02-26T09:11:57;4.33;;;1.40;;
15645;SDS011;7922;43.622;1.476;2024-02-26T09:14:22;5.77;;;1.50;;
15645;SDS011;7922;43.622;1.476;2024-02-26T09:16:48;4.70;;;1.67;;
15645;SDS011;7922;43.622;1.476;2024-02-26T09:19:13;4.93;;;1.20;;
15645;SDS011;7922;43.622;1.476;2024-02-26T09:21:42;4.80;;;2.20;;
15645;SDS011;7922;43.622;1.476;2024-02-26T09:24:11;5.20;;;1.10;;
15645;SDS011;7922;43.622;1.476;2024-02-26T09:26:37;5.07;;;1.63;;
15645;SDS011;7922;43.622;1.476;2024-02-26T09:29:03;5.40;;;1.50;;
15645;SDS011;7922;43.622;1.476;2024-02-26T09:31:28;4.50;;;1.07;;
15645;SDS011;7922;43.622;1.476;2024-02-26T09:33:53;4.77;;;1.13;;
15645;SDS011;7922;43.622;1.476;2024-02-26T09:36:19;6.20;;;1.50;;
15645;SDS011;7922;43.622;1.476;2024-02-26T09:38:44;4.47;;;1.50;;
15645;SDS011;7922;43.622;1.476;2024-02-26T09:41:13;4.77;;;1.17;;
15645;SDS011;7922;43.622;1.476;2024-02-26T09:43:39;4.23;;;0.97;;
15645;SDS011;7922;43.622;1.476;2024-02-26T09:46:09;2.97;;;1.00;;
15645;SDS011;7922;43.622;1.476;2024-02-26T09:48:35;5.80;;;1.53;;
15645;SDS011;7922;43.622;1.476;2024-02-26T09:51:02;3.27;;;1.30;;
15645;SDS011;7922;43.622;1.476;2024-02-26T09:53:27;3.80;;;1.20;;
15645;SDS011;7922;43.622;1.476;2024-02-26T09:55:54;3.33;;;1.10;;
15645;SDS011;7922;43.622;1.476;2024-02-26T09:58:20;2.10;;;1.03;;
15645;SDS011;7922;43.622;1.476;2024-02-26T10:00:50;3.73;;;1.40;;
15645;SDS011;7922;43.622;1.476;2024-02-26T10:03:18;4.50;;;1.10;;
15645;SDS011;7922;43.622;1.476;2024-02-26T10:05:46;2.33;;;1.03;;
15645;SDS011;7922;43.622;1.476;2024-02-26T10:08:17;2.83;;;1.13;;
15645;SDS011;7922;43.622;1.476;2024-02-26T10:10:42;3.43;;;1.20;;
15645;SDS011;7922;43.622;1.476;2024-02-26T10:13:08;4.47;;;1.47;;
15645;SDS011;7922;43.622;1.476;2024-02-26T10:15:34;2.87;;;1.00;;
15645;SDS011;7922;43.622;1.476;2024-02-26T10:17:59;5.27;;;1.20;;
15645;SDS011;7922;43.622;1.476;2024-02-26T10:20:24;5.20;;;1.10;;
15645;SDS011;7922;43.622;1.476;2024-02-26T10:22:50;7.07;;;1.33;;
15645;SDS011;7922;43.622;1.476;2024-02-26T10:25:15;4.93;;;1.20;;
15645;SDS011;7922;43.622;1.476;2024-02-26T10:27:41;4.57;;;1.13;;
15645;SDS011;7922;43.622;1.476;2024-02-26T10:30:16;1.90;;;1.33;;
15645;SDS011;7922;43.622;1.476;2024-02-26T10:32:42;7.27;;;1.20;;
15645;SDS011;7922;43.622;1.476;2024-02-26T10:35:08;3.23;;;1.27;;
15645;SDS011;7922;43.622;1.476;2024-02-26T10:37:34;5.83;;;1.10;;
15645;SDS011;7922;43.622;1.476;2024-02-26T10:39:59;3.73;;;1.27;;
15645;SDS011;7922;43.622;1.476;2024-02-26T10:42:25;3.13;;;1.50;;
15645;SDS011;7922;43.622;1.476;2024-02-26T10:44:51;2.70;;;1.30;;
15645;SDS011;7922;43.622;1.476;2024-02-26T10:47:16;3.20;;;1.10;;
15645;SDS011;7922;43.622;1.476;2024-02-26T10:49:44;4.93;;;1.23;;
15645;SDS011;7922;43.622;1.476;2024-02-26T10:52:13;2.27;;;1.07;;
15645;SDS011;7922;43.622;1.476;2024-02-26T10:54:40;2.20;;;0.80;;
15645;SDS011;7922;43.622;1.476;2024-02-26T10:57:06;3.53;;;1.30;;
15645;SDS011;7922;43.622;1.476;2024-02-26T10:59:34;3.53;;;0.90;;
15645;SDS011;7922;43.622;1.476;2024-02-26T11:02:01;3.77;;;1.40;;
15645;SDS011;7922;43.622;1.476;2024-02-26T11:04:27;3.50;;;0.90;;
15645;SDS011;7922;43.622;1.476;2024-02-26T11:06:52;2.77;;;0.90;;
15645;SDS011;7922;43.622;1.476;2024-02-26T11:09:20;2.40;;;0.80;;
15645;SDS011;7922;43.622;1.476;2024-02-26T11:11:46;1.87;;;1.00;;
15645;SDS011;7922;43.622;1.476;2024-02-26T11:14:13;3.50;;;1.10;;
15645;SDS011;7922;43.622;1.476;2024-02-26T11:16:39;2.33;;;0.83;;
15645;SDS011;7922;43.622;1.476;2024-02-26T11:19:06;3.80;;;0.80;;
15645;SDS011;7922;43.622;1.476;2024-02-26T11:21:33;3.57;;;0.90;;
15645;SDS011;7922;43.622;1.476;2024-02-26T11:23:58;2.53;;;1.10;;
15645;SDS011;7922;43.622;1.476;2024-02-26T11:26:27;4.70;;;1.20;;
15645;SDS011;7922;43.622;1.476;2024-02-26T11:28:53;2.80;;;0.80;;
15645;SDS011;7922;43.622;1.476;2024-02-26T11:31:19;2.93;;;0.97;;
15645;SDS011;7922;43.622;1.476;2024-02-26T11:33:44;3.13;;;0.93;;
15645;SDS011;7922;43.622;1.476;2024-02-26T11:36:11;5.70;;;1.17;;
15645;SDS011;7922;43.622;1.476;2024-02-26T11:38:37;2.50;;;0.90;;
15645;SDS011;7922;43.622;1.476;2024-02-26T11:41:02;2.57;;;0.90;;
15645;SDS011;7922;43.622;1.476;2024-02-26T11:46:27;2.07;;;0.83;;
15645;SDS011;7922;43.622;1.476;2024-02-26T11:48:55;2.67;;;0.93;;
15645;SDS011;7922;43.622;1.476;2024-02-26T11:51:39;2.10;;;0.70;;
15645;SDS011;7922;43.622;1.476;2024-02-26T11:54:29;2.40;;;0.87;;
15645;SDS011;7922;43.622;1.476;2024-02-26T11:57:28;3.00;;;0.80;;
15645;SDS011;7922;43.622;1.476;2024-02-26T11:59:55;1.60;;;0.80;;
15645;SDS011;7922;43.622;1.476;2024-02-26T12:07:36;1.17;;;0.60;;
15645;SDS011;7922;43.622;1.476;2024-02-26T12:12:52;3.80;;;0.80;;
15645;SDS011;7922;43.622;1.476;2024-02-26T12:15:18;0.73;;;0.60;;
15645;SDS011;7922;43.622;1.476;2024-02-26T12:17:46;1.50;;;0.90;;
15645;SDS011;7922;43.622;1.476;2024-02-26T12:20:16;1.80;;;0.87;;
15645;SDS011;7922;43.622;1.476;2024-02-26T12:22:44;2.80;;;1.00;;
15645;SDS011;7922;43.622;1.476;2024-02-26T12:25:10;3.77;;;0.93;;
15645;SDS011;7922;43.622;1.476;2024-02-26T12:27:36;1.83;;;0.60;;
15645;SDS011;7922;43.622;1.476;2024-02-26T12:30:02;2.53;;;0.80;;
15645;SDS011;7922;43.622;1.476;2024-02-26T12:32:28;3.47;;;0.93;;
15645;SDS011;7922;43.622;1.476;2024-02-26T12:34:53;2.50;;;0.90;;
15645;SDS011;7922;43.622;1.476;2024-02-26T12:37:19;1.87;;;0.70;;
15645;SDS011;7922;43.622;1.476;2024-02-26T12:39:44;4.23;;;1.03;;
15645;SDS011;7922;43.622;1.476;2024-02-26T12:42:09;2.03;;;0.70;;
15645;SDS011;7922;43.622;1.476;2024-02-26T12:44:35;2.57;;;0.73;;
15645;SDS011;7922;43.622;1.476;2024-02-26T12:47:01;1.53;;;1.00;;
15645;SDS011;7922;43.622;1.476;2024-02-26T12:49:26;2.50;;;0.90;;
15645;SDS011;7922;43.622;1.476;2024-02-26T12:51:52;4.13;;;0.90;;
15645;SDS011;7922;43.622;1.476;2024-02-26T12:54:17;2.23;;;0.80;;
15645;SDS011;7922;43.622;1.476;2024-02-26T12:56:43;1.73;;;0.70;;
15645;SDS011;7922;43.622;1.476;2024-02-26T12:59:08;0.83;;;0.70;;
15645;SDS011;7922;43.622;1.476;2024-02-26T13:01:34;1.27;;;0.67;;
15645;SDS011;7922;43.622;1.476;2024-02-26T13:03:59;1.27;;;0.70;;
15645;SDS011;7922;43.622;1.476;2024-02-26T13:06:25;3.27;;;0.93;;
15645;SDS011;7922;43.622;1.476;2024-02-26T13:08:54;1.83;;;0.77;;
15645;SDS011;7922;43.622;1.476;2024-02-26T13:11:21;3.17;;;0.77;;
15645;SDS011;7922;43.622;1.476;2024-02-26T13:13:47;1.97;;;0.73;;
15645;SDS011;7922;43.622;1.476;2024-02-26T13:16:14;0.80;;;0.70;;
15645;SDS011;7922;43.622;1.476;2024-02-26T13:18:39;2.90;;;0.83;;
15645;SDS011;7922;43.622;1.476;2024-02-26T13:21:06;1.33;;;0.80;;
15645;SDS011;7922;43.622;1.476;2024-02-26T13:23:32;1.83;;;0.70;;
15645;SDS011;7922;43.622;1.476;2024-02-26T13:25:58;1.17;;;0.60;;
15645;SDS011;7922;43.622;1.476;2024-02-26T13:28:23;2.37;;;0.60;;
15645;SDS011;7922;43.622;1.476;2024-02-26T13:30:52;1.37;;;0.50;;
15645;SDS011;7922;43.622;1.476;2024-02-26T13:33:18;0.40;;;0.40;;
15645;SDS011;7922;43.622;1.476;2024-02-26T13:35:44;1.27;;;0.50;;
15645;SDS011;7922;43.622;1.476;2024-02-26T13:38:10;2.13;;;0.70;;
15645;SDS011;7922;43.622;1.476;2024-02-26T13:40:35;1.33;;;0.60;;
15645;SDS011;7922;43.622;1.476;2024-02-26T13:43:01;1.30;;;0.70;;
15645;SDS011;7922;43.622;1.476;2024-02-26T13:45:26;1.10;;;0.80;;
15645;SDS011;7922;43.622;1.476;2024-02-26T13:47:51;1.13;;;0.70;;
15645;SDS011;7922;43.622;1.476;2024-02-26T13:50:17;0.73;;;0.60;;
15645;SDS011;7922;43.622;1.476;2024-02-26T13:52:42;1.33;;;0.80;;
15645;SDS011;7922;43.622;1.476;2024-02-26T13:55:07;0.90;;;0.50;;
15645;SDS011;7922;43.622;1.476;2024-02-26T13:57:33;1.37;;;0.60;;
15645;SDS011;7922;43.622;1.476;2024-02-26T13:59:58;0.90;;;0.50;;
15645;SDS011;7922;43.622;1.476;2024-02-26T14:02:23;3.30;;;0.60;;
15645;SDS011;7922;43.622;1.476;2024-02-26T14:04:49;0.97;;;0.67;;
15645;SDS011;7922;43.622;1.476;2024-02-26T14:07:14;0.87;;;0.80;;
15645;SDS011;7922;43.622;1.476;2024-02-26T14:09:43;0.57;;;0.50;;
15645;SDS011;7922;43.622;1.476;2024-02-26T14:12:08;1.13;;;0.67;;
15645;SDS011;7922;43.622;1.476;2024-02-26T14:14:33;3.80;;;0.80;;
15645;SDS011;7922;43.622;1.476;2024-02-26T14:16:59;0.83;;;0.63;;
15645;SDS011;7922;43.622;1.476;2024-02-26T14:19:24;1.70;;;0.60;;
15645;SDS011;7922;43.622;1.476;2024-02-26T14:21:49;1.73;;;0.60;;
15645;SDS011;7922;43.622;1.476;2024-02-26T14:24:14;1.97;;;0.63;;
15645;SDS011;7922;43.622;1.476;2024-02-26T14:26:40;1.00;;;0.50;;
15645;SDS011;7922;43.622;1.476;2024-02-26T14:29:05;0.80;;;0.60;;
15645;SDS011;7922;43.622;1.476;2024-02-26T14:31:31;0.80;;;0.60;;
15645;SDS011;7922;43.622;1.476;2024-02-26T14:33:56;1.20;;;0.80;;
15645;SDS011;7922;43.622;1.476;2024-02-26T14:36:21;1.13;;;0.60;;
15645;SDS011;7922;43.622;1.476;2024-02-26T14:38:47;2.10;;;0.50;;
15645;SDS011;7922;43.622;1.476;2024-02-26T14:41:13;1.20;;;0.80;;
15645;SDS011;7922;43.622;1.476;2024-02-26T14:43:38;1.83;;;0.70;;
15645;SDS011;7922;43.622;1.476;2024-02-26T14:46:03;1.33;;;0.60;;
15645;SDS011;7922;43.622;1.476;2024-02-26T14:48:29;1.17;;;0.70;;
15645;SDS011;7922;43.622;1.476;2024-02-26T14:50:55;0.90;;;0.60;;
15645;SDS011;7922;43.622;1.476;2024-02-26T14:53:20;1.97;;;0.60;;
15645;SDS011;7922;43.622;1.476;2024-02-26T14:55:46;1.10;;;0.63;;
15645;SDS011;7922;43.622;1.476;2024-02-26T14:58:11;0.90;;;0.50;;
15645;SDS011;7922;43.622;1.476;2024-02-26T15:00:36;0.90;;;0.40;;
15645;SDS011;7922;43.622;1.476;2024-02-26T15:03:03;2.13;;;1.03;;
15645;SDS011;7922;43.622;1.476;2024-02-26T15:05:32;1.67;;;0.80;;